Time;durP1;ratioP1;P1;durP2;ratioP2;P2;SDS_P1;SDS_P2;PMS_P1;PMS_P2;Temp;Humidity;BMP_temperature;BMP_pressure;BME280_temperature;BME280_humidity;BME280_pressure;Samples;Min_cycle;Max_cycle;Signal;HPM_P1;HPM_P2
2023/09/14 00:00:52;;;;;;;;;;;;;;;-144.99;100.00;52472.56;5008870;28;20048;-73
2023/09/14 00:03:20;;;;;;;;;;;;;;;-144.99;100.00;52482.75;5004112;28;20031;-73
2023/09/14 00:05:48;;;;;;;;;;;;;;;-144.99;100.00;52444.03;4992929;28;19965;-73
2023/09/14 00:08:14;;;;;;;;;;;;;;;-144.99;100.00;52452.16;4999528;28;19945;-74
2023/09/14 00:10:41;;;;;;;;;;;;;;;-144.99;100.00;52480.72;5001872;28;19950;-73
2023/09/14 00:13:08;;;;;;;;;;;;;;;-144.99;100.00;52444.03;4996825;28;20311;-74
2023/09/14 00:15:35;;;;;;;;;;;;;;;-144.99;100.00;52444.03;4997555;28;20020;-73
2023/09/14 00:18:02;;;;;;;;;;;;;;;-144.99;100.00;52472.56;5001815;28;20042;-74
2023/09/14 00:20:31;;;;;;;;;;;;;;;-144.99;100.00;52468.47;5004026;28;20000;-74
2023/09/14 00:22:58;;;;;;;;;;;;;;;-144.99;100.00;52419.56;5000145;28;19948;-74
2023/09/14 00:25:25;;;;;;;;;;;;;;;-144.99;100.00;52419.56;4993173;28;19945;-73
2023/09/14 00:27:52;;;;;;;;;;;;;;;-144.99;100.00;52456.25;4999022;28;19944;-73
2023/09/14 00:30:19;;;;;;;;;;;;;;;-144.99;100.00;52488.84;4992559;28;19942;-74
2023/09/14 00:32:49;;;;;;;;;;;;;;;-144.99;100.00;52446.06;5009711;28;19984;-74
2023/09/14 00:35:16;;;;;;;;;;;;;;;-144.99;100.00;52464.41;4998063;28;20359;-75
2023/09/14 00:37:44;;;;;;;;;;;;;;;-144.99;100.00;52460.31;5006424;28;20069;-74
2023/09/14 00:40:11;;;;;;;;;;;;;;;-144.99;100.00;52435.88;5022290;28;20019;-74
2023/09/14 00:42:38;;;;;;;;;;;;;;;-144.99;100.00;52419.56;5019967;28;19949;-75
2023/09/14 00:45:05;;;;;;;;;;;;;;;-144.99;100.00;52460.31;5011300;28;20397;-74
2023/09/14 00:47:32;;;;;;;;;;;;;;;-144.99;100.00;52468.47;4995601;28;20057;-75
2023/09/14 00:49:59;;;;;;;;;;;;;;;-144.99;100.00;52448.09;4998185;28;19986;-74
2023/09/14 00:52:25;;;;;;;;;;;;;;;-144.99;100.00;52419.56;5005140;28;19943;-74
2023/09/14 00:54:53;;;;;;;;;;;;;;;-144.99;100.00;52480.72;5012387;28;20032;-74
2023/09/14 00:57:20;;;;;;;;;;;;;;;-144.99;100.00;52456.25;5003988;28;20037;-75
2023/09/14 00:59:47;;;;;;;;;;;;;;;-144.99;100.00;52439.94;4995170;28;19963;-75
2023/09/14 01:02:14;;;;;;;;;;;;;;;-144.99;100.00;52450.13;5011229;28;20037;-74
2023/09/14 01:04:41;;;;;;;;;;;;;;;-144.99;100.00;52448.09;5018967;28;19945;-76
2023/09/14 01:07:08;;;;;;;;;;;;;;;-144.99;100.00;52497.00;5024984;28;19949;-75
2023/09/14 01:09:35;;;;;;;;;;;;;;;-144.99;100.00;52454.22;5036095;28;19935;-76
2023/09/14 01:12:03;;;;;;;;;;;;;;;-144.99;100.00;52484.78;5029828;28;19974;-76
2023/09/14 01:14:34;;;;;;;;;;;;;;;-144.99;100.00;52464.41;5034084;28;19966;-74
2023/09/14 01:17:07;;;;;;;;;;;;;;;-144.99;100.00;52452.16;5032453;28;19954;-75
2023/09/14 01:19:40;;;;;;;;;;;;;;;-144.99;100.00;52427.72;5034834;28;19985;-73
2023/09/14 01:22:30;;;;;;;;;;;;;;;-144.99;100.00;52460.31;5015181;28;19943;-72
2023/09/14 01:24:59;;;;;;;;;;;;;;;-144.99;100.00;52456.25;5027799;28;19947;-75
2023/09/14 01:27:27;;;;;;;;;;;;;;;-144.99;100.00;52460.31;5021383;28;19951;-75
2023/09/14 01:29:55;;;;;;;;;;;;;;;-144.99;100.00;52456.25;5020720;28;19960;-76
2023/09/14 01:32:21;;;;;;;;;;;;;;;-144.99;100.00;52452.16;5029551;28;19945;-75
2023/09/14 01:34:48;;;;;;;;;;;;;;;-144.99;100.00;52452.16;5031207;28;19942;-75
2023/09/14 01:37:15;;;;;;;;;;;;;;;-144.99;100.00;52472.56;5031857;28;19969;-74
2023/09/14 01:39:42;;;;;;;;;;;;;;;-144.99;100.00;52490.91;5022055;28;19970;-72
2023/09/14 01:42:09;;;;;;;;;;;;;;;-144.99;100.00;52464.41;5014065;28;19956;-72
2023/09/14 01:44:37;;;;;;;;;;;;;;;-144.99;100.00;52411.41;5007969;28;20027;-74
2023/09/14 01:47:05;;;;;;;;;;;;;;;-144.99;100.00;52482.75;5009505;28;20011;-73
2023/09/14 01:49:31;;;;;;;;;;;;;;;-144.99;100.00;52448.09;5002301;28;19997;-73
2023/09/14 01:51:58;;;;;;;;;;;;;;;-144.99;100.00;52444.03;5012725;28;20007;-74
2023/09/14 01:54:24;;;;;;;;;;;;;;;-144.99;100.00;52456.25;5011070;28;20635;-73
2023/09/14 01:56:51;;;;;;;;;;;;;;;-144.99;100.00;52464.41;5005872;28;20002;-74
2023/09/14 01:59:17;;;;;;;;;;;;;;;-144.99;100.00;52468.47;5006345;28;20327;-75
2023/09/14 02:01:45;;;;;;;;;;;;;;;-144.99;100.00;52462.34;5003388;28;20049;-74
2023/09/14 02:04:11;;;;;;;;;;;;;;;-144.99;100.00;52468.47;4996256;28;19977;-73
2023/09/14 02:06:38;;;;;;;;;;;;;;;-144.99;100.00;52486.81;4999467;28;20059;-73
2023/09/14 02:09:04;;;;;;;;;;;;;;;-144.99;100.00;52450.13;4995594;28;20035;-75
2023/09/14 02:11:31;;;;;;;;;;;;;;;-144.99;100.00;52456.25;5005995;28;19982;-74
2023/09/14 02:13:57;;;;;;;;;;;;;;;-144.99;100.00;52472.56;5003709;28;19941;-73
2023/09/14 02:16:24;;;;;;;;;;;;;;;-144.99;100.00;52466.44;5004388;28;20038;-75
2023/09/14 02:18:52;;;;;;;;;;;;;;;-144.99;100.00;52505.16;5002999;28;19995;-73
2023/09/14 02:21:18;;;;;;;;;;;;;;;-144.99;100.00;52435.88;5001252;28;20046;-73
2023/09/14 02:23:44;;;;;;;;;;;;;;;-144.99;100.00;52513.31;5004285;28;19954;-74
2023/09/14 02:26:11;;;;;;;;;;;;;;;-144.99;100.00;52456.25;4996141;28;19961;-74
2023/09/14 02:28:37;;;;;;;;;;;;;;;-144.99;100.00;52460.31;5005132;28;19948;-74
2023/09/14 02:31:06;;;;;;;;;;;;;;;-144.99;100.00;52439.94;5000605;28;20049;-74
2023/09/14 02:33:32;;;;;;;;;;;;;;;-144.99;100.00;52480.72;5003333;28;20027;-75
2023/09/14 02:36:00;;;;;;;;;;;;;;;-144.99;100.00;52460.31;5000012;28;20436;-74
2023/09/14 02:38:27;;;;;;;;;;;;;;;-144.99;100.00;52435.88;4998717;28;19993;-75
2023/09/14 02:40:53;;;;;;;;;;;;;;;-144.99;100.00;52444.03;4996357;28;20061;-74
2023/09/14 02:43:20;;;;;;;;;;;;;;;-144.99;100.00;52460.31;4998644;28;19992;-75
2023/09/14 02:45:46;;;;;;;;;;;;;;;-144.99;100.00;52450.13;4994825;28;19988;-71
2023/09/14 02:48:13;;;;;;;;;;;;;;;-144.99;100.00;52435.88;5000647;28;20030;-72
2023/09/14 02:50:39;;;;;;;;;;;;;;;-144.99;100.00;52431.78;5004033;28;20465;-72
2023/09/14 02:53:07;;;;;;;;;;;;;;;-144.99;100.00;52468.47;4992794;28;20352;-71
2023/09/14 02:55:34;;;;;;;;;;;;;;;-144.99;100.00;52452.16;4999914;28;20135;-72
2023/09/14 02:58:00;;;;;;;;;;;;;;;-144.99;100.00;52452.16;5004408;28;20045;-71
2023/09/14 03:00:27;;;;;;;;;;;;;;;-144.99;100.00;52452.16;5007589;28;19998;-71
2023/09/14 03:02:54;;;;;;;;;;;;;;;-144.99;100.00;52439.94;5008746;28;19947;-70
2023/09/14 03:05:20;;;;;;;;;;;;;;;-144.99;100.00;52460.31;4997347;28;19941;-71
2023/09/14 03:07:48;;;;;;;;;;;;;;;-144.99;100.00;52456.25;4996963;28;20398;-70
2023/09/14 03:10:16;;;;;;;;;;;;;;;-144.99;100.00;52476.63;4998005;28;19995;-71
2023/09/14 03:12:42;;;;;;;;;;;;;;;-144.99;100.00;52448.09;4990206;28;20026;-71
2023/09/14 03:15:09;;;;;;;;;;;;;;;-144.99;100.00;52480.72;4996957;28;19949;-72
2023/09/14 03:17:35;;;;;;;;;;;;;;;-144.99;100.00;52460.31;5000737;28;20871;-71
2023/09/14 03:20:06;;;;;;;;;;;;;;;-144.99;100.00;52439.94;5007754;28;19964;-71
2023/09/14 03:22:32;;;;;;;;;;;;;;;-144.99;100.00;52490.91;5002857;28;19987;-71
2023/09/14 03:25:00;;;;;;;;;;;;;;;-144.99;100.00;52448.09;5007406;28;19976;-74
2023/09/14 03:27:28;;;;;;;;;;;;;;;-144.99;100.00;52482.75;4995271;28;19958;-74
2023/09/14 03:29:54;;;;;;;;;;;;;;;-144.99;100.00;52456.25;5006587;28;19989;-72
2023/09/14 03:32:20;;;;;;;;;;;;;;;-144.99;100.00;52433.81;4998977;28;20039;-74
2023/09/14 03:34:47;;;;;;;;;;;;;;;-144.99;100.00;52490.91;5007077;28;20371;-74
2023/09/14 03:37:13;;;;;;;;;;;;;;;-144.99;100.00;52450.13;5008267;28;20000;-77
2023/09/14 03:39:42;;;;;;;;;;;;;;;-144.99;100.00;52507.19;5003376;28;19983;-74
2023/09/14 03:42:10;;;;;;;;;;;;;;;-144.99;100.00;52480.72;5008592;28;20525;-75
2023/09/14 03:44:38;;;;;;;;;;;;;;;-144.99;100.00;52480.72;5000507;28;19950;-75
2023/09/14 03:47:04;;;;;;;;;;;;;;;-144.99;100.00;52464.41;4998523;28;20406;-74
2023/09/14 03:49:31;;;;;;;;;;;;;;;-144.99;100.00;52423.63;5000260;28;20027;-74
2023/09/14 03:51:57;;;;;;;;;;;;;;;-144.99;100.00;52464.41;5003745;28;20580;-73
2023/09/14 03:54:24;;;;;;;;;;;;;;;-144.99;100.00;52439.94;5002837;28;19972;-74
2023/09/14 03:56:50;;;;;;;;;;;;;;;-144.99;100.00;52464.41;4999029;28;20077;-73
2023/09/14 03:59:17;;;;;;;;;;;;;;;-144.99;100.00;52439.94;4998704;28;19982;-75
2023/09/14 04:01:45;;;;;;;;;;;;;;;-144.99;100.00;52472.56;4997657;28;19962;-76
2023/09/14 04:04:12;;;;;;;;;;;;;;;-144.99;100.00;52476.63;5002259;28;19948;-75
2023/09/14 04:06:38;;;;;;;;;;;;;;;-144.99;100.00;52444.03;5004439;28;20072;-72
2023/09/14 04:09:05;;;;;;;;;;;;;;;-144.99;100.00;52444.03;4990086;28;20068;-69
2023/09/14 04:11:31;;;;;;;;;;;;;;;-144.99;100.00;52460.31;4997786;28;19947;-70
2023/09/14 04:13:58;;;;;;;;;;;;;;;-144.99;100.00;52472.56;4989899;28;20020;-70
2023/09/14 04:16:28;;;;;;;;;;;;;;;-144.99;100.00;52435.88;4999977;28;19992;-73
2023/09/14 04:19:00;;;;;;;;;;;;;;;-144.99;100.00;52439.94;4998086;28;19971;-73
2023/09/14 04:21:27;;;;;;;;;;;;;;;-144.99;100.00;52472.56;4997759;28;19970;-72
2023/09/14 04:23:53;;;;;;;;;;;;;;;-144.99;100.00;52431.78;5003710;28;20436;-72
2023/09/14 04:26:20;;;;;;;;;;;;;;;-144.99;100.00;52460.31;5006559;28;20039;-73
2023/09/14 04:28:46;;;;;;;;;;;;;;;-144.99;100.00;52480.72;5007730;28;19971;-74
2023/09/14 04:31:12;;;;;;;;;;;;;;;-144.99;100.00;52439.94;5005287;28;19952;-74
2023/09/14 04:33:41;;;;;;;;;;;;;;;-144.99;100.00;52460.31;5005933;28;19945;-74
2023/09/14 04:36:09;;;;;;;;;;;;;;;-144.99;100.00;52450.13;5002301;28;19963;-72
2023/09/14 04:38:35;;;;;;;;;;;;;;;-144.99;100.00;52435.88;5000231;28;19945;-75
2023/09/14 04:41:05;;;;;;;;;;;;;;;-144.99;100.00;52454.22;5007356;28;20046;-77
2023/09/14 04:43:32;;;;;;;;;;;;;;;-144.99;100.00;52427.72;5000148;28;19945;-80
2023/09/14 04:45:59;;;;;;;;;;;;;;;-144.99;100.00;52435.88;5005212;28;19955;-77
2023/09/14 04:48:25;;;;;;;;;;;;;;;-144.99;100.00;52452.16;5005616;28;19965;-77
2023/09/14 04:50:55;;;;;;;;;;;;;;;-144.99;100.00;52480.72;5016970;28;19940;-78
2023/09/14 04:53:23;;;;;;;;;;;;;;;-144.99;100.00;52484.78;5002705;28;19941;-78
2023/09/14 04:55:49;;;;;;;;;;;;;;;-144.99;100.00;52472.56;5007650;28;19959;-78
2023/09/14 04:58:16;;;;;;;;;;;;;;;-144.99;100.00;52472.56;5010935;28;19946;-77
2023/09/14 05:00:43;;;;;;;;;;;;;;;-144.99;100.00;52427.72;5019149;28;20490;-77
2023/09/14 05:03:09;;;;;;;;;;;;;;;-144.99;100.00;52476.63;5002154;28;19960;-78
2023/09/14 05:05:36;;;;;;;;;;;;;;;-144.99;100.00;52484.78;5005992;28;19996;-79
2023/09/14 05:08:02;;;;;;;;;;;;;;;-144.99;100.00;52484.78;5015749;28;19972;-77
2023/09/14 05:10:30;;;;;;;;;;;;;;;-144.99;100.00;52452.16;5012015;28;20007;-77
2023/09/14 05:12:57;;;;;;;;;;;;;;;-144.99;100.00;52444.03;5019260;28;19943;-76
2023/09/14 05:15:23;;;;;;;;;;;;;;;-144.99;100.00;52435.88;5019974;28;20176;-77
2023/09/14 05:17:50;;;;;;;;;;;;;;;-144.99;100.00;52476.63;5030655;28;19938;-76
2023/09/14 05:20:17;;;;;;;;;;;;;;;-144.99;100.00;52484.78;5010569;28;19953;-77
2023/09/14 05:22:43;;;;;;;;;;;;;;;-144.99;100.00;52476.63;5007478;28;19946;-77
2023/09/14 05:25:10;;;;;;;;;;;;;;;-144.99;100.00;52386.94;5000306;28;19957;-77
2023/09/14 05:27:38;;;;;;;;;;;;;;;-144.99;100.00;52448.09;4997474;28;20030;-77
2023/09/14 05:30:05;;;;;;;;;;;;;;;-144.99;100.00;52476.63;4997497;28;20057;-76
2023/09/14 05:32:32;;;;;;;;;;;;;;;-144.99;100.00;52407.31;5009415;28;19951;-77
2023/09/14 05:34:59;;;;;;;;;;;;;;;-144.99;100.00;52431.78;5003429;28;19942;-77
2023/09/14 05:37:25;;;;;;;;;;;;;;;-144.99;100.00;52431.78;5005880;28;20501;-77
2023/09/14 05:39:51;;;;;;;;;;;;;;;-144.99;100.00;52415.47;5009694;28;19958;-77
2023/09/14 05:42:18;;;;;;;;;;;;;;;-144.99;100.00;52444.03;5002751;28;20457;-76
2023/09/14 05:44:47;;;;;;;;;;;;;;;-144.99;100.00;52407.31;5008745;28;19940;-77
2023/09/14 05:47:14;;;;;;;;;;;;;;;-144.99;100.00;52458.28;4998686;28;20432;-77
2023/09/14 05:49:40;;;;;;;;;;;;;;;-144.99;100.00;52409.38;4995165;28;20453;-77
2023/09/14 05:52:07;;;;;;;;;;;;;;;-144.99;100.00;52415.47;5006996;28;20007;-77
2023/09/14 05:54:33;;;;;;;;;;;;;;;-144.99;100.00;52452.16;5025135;28;19928;-77
2023/09/14 05:57:00;;;;;;;;;;;;;;;-144.99;100.00;52431.78;5028463;28;19949;-76
2023/09/14 05:59:26;;;;;;;;;;;;;;;-144.99;100.00;52423.63;5003636;28;19993;-77
2023/09/14 06:01:54;;;;;;;;;;;;;;;-144.99;100.00;52421.59;5006974;28;20017;-77
2023/09/14 06:04:20;;;;;;;;;;;;;;;-144.99;100.00;52435.88;5004409;28;19947;-77
2023/09/14 06:06:47;;;;;;;;;;;;;;;-144.99;100.00;52423.63;5014995;28;20772;-78
2023/09/14 06:09:13;;;;;;;;;;;;;;;-144.99;100.00;52411.41;4997010;28;19949;-77
2023/09/14 06:11:41;;;;;;;;;;;;;;;-144.99;100.00;52407.31;5000279;28;19980;-78
2023/09/14 06:14:08;;;;;;;;;;;;;;;-144.99;100.00;52435.88;5003108;28;19945;-77
2023/09/14 06:16:34;;;;;;;;;;;;;;;-144.99;100.00;52411.41;5003360;28;20032;-77
2023/09/14 06:19:02;;;;;;;;;;;;;;;-144.99;100.00;52431.78;5007101;28;19999;-79
2023/09/14 06:21:29;;;;;;;;;;;;;;;-144.99;100.00;52391.03;5006130;28;19961;-77
2023/09/14 06:23:55;;;;;;;;;;;;;;;-144.99;100.00;52415.47;5005029;28;19943;-78
2023/09/14 06:26:22;;;;;;;;;;;;;;;-144.99;100.00;52384.91;5006865;28;19967;-79
2023/09/14 06:28:48;;;;;;;;;;;;;;;-144.99;100.00;52427.72;5005759;28;20203;-80
2023/09/14 06:31:14;;;;;;;;;;;;;;;-144.99;100.00;52403.25;5004407;28;19945;-77
2023/09/14 06:33:41;;;;;;;;;;;;;;;-144.99;100.00;52415.47;5051936;23;20015;-72
2023/09/14 06:36:09;;;;;;;;;;;;;;;-144.99;100.00;52395.09;5025497;28;20387;-73
2023/09/14 06:38:35;;;;;;;;;;;;;;;-144.99;100.00;52407.31;5025482;28;19964;-73
2023/09/14 06:41:02;;;;;;;;;;;;;;;-144.99;100.00;52435.88;5026775;28;20400;-73
2023/09/14 06:43:28;;;;;;;;;;;;;;;-144.99;100.00;52372.69;5024917;28;19940;-73
2023/09/14 06:45:55;;;;;;;;;;;;;;;-144.99;100.00;52372.69;5032571;28;19967;-72
2023/09/14 06:48:21;;;;;;;;;;;;;;;-144.99;100.00;52358.41;5042662;28;19979;-73
2023/09/14 06:50:48;;;;;;;;;;;;;;;-144.99;99.95;52333.94;5045243;28;19948;-71
2023/09/14 06:53:16;;;;;;;;;;;;;;;-144.99;99.95;52382.88;5042357;28;19954;-72
2023/09/14 06:55:43;;;;;;;;;;;;;;;-144.99;99.34;52380.84;5036125;28;19946;-71
2023/09/14 06:58:09;;;;;;;;;;;;;;;-144.99;98.53;52393.06;5042618;28;19953;-71
2023/09/14 07:00:36;;;;;;;;;;;;;;;-144.99;97.14;52419.56;5035884;28;19993;-72
2023/09/14 07:03:03;;;;;;;;;;;;;;;-144.99;96.22;52407.31;5025896;28;20397;-71
2023/09/14 07:05:30;;;;;;;;;;;;;;;-144.99;95.00;52325.81;5024519;28;19987;-72
2023/09/14 07:07:57;;;;;;;;;;;;;;;-144.99;93.32;52344.16;5028567;28;20326;-71
2023/09/14 07:10:25;;;;;;;;;;;;;;;-144.99;92.73;52338.03;5032109;28;20004;-72
2023/09/14 07:12:51;;;;;;;;;;;;;;;-144.99;91.60;52350.25;5021212;28;20459;-72
2023/09/14 07:15:18;;;;;;;;;;;;;;;-144.99;89.41;52350.25;5023371;28;19976;-72
2023/09/14 07:17:44;;;;;;;;;;;;;;;-144.99;88.02;52354.34;5025458;28;19946;-72
2023/09/14 07:20:11;;;;;;;;;;;;;;;-144.99;87.32;52348.22;5022431;28;19961;-71
2023/09/14 07:22:38;;;;;;;;;;;;;;;-144.99;87.37;52350.25;5021905;28;19957;-72
2023/09/14 07:25:05;;;;;;;;;;;;;;;-144.99;86.91;52358.41;5026583;28;19974;-72
2023/09/14 07:27:33;;;;;;;;;;;;;;;-144.99;85.05;52350.25;5026514;28;20008;-72
2023/09/14 07:30:00;;;;;;;;;;;;;;;-144.99;84.56;52358.41;5027658;28;19963;-72
2023/09/14 07:32:26;;;;;;;;;;;;;;;-144.99;83.94;52354.34;5025637;28;19971;-72
2023/09/14 07:34:53;;;;;;;;;;;;;;;-144.99;83.48;52358.41;5012977;28;20524;-72
2023/09/14 07:37:19;;;;;;;;;;;;;;;-144.99;82.92;52305.41;5025434;28;19941;-71
2023/09/14 07:39:46;;;;;;;;;;;;;;;-144.99;82.52;52305.41;5019297;28;19970;-71
2023/09/14 07:42:13;;;;;;;;;;;;;;;-144.99;81.91;52348.22;5022976;28;19994;-72
2023/09/14 07:44:41;;;;;;;;;;;;;;;-144.99;80.43;52333.94;5026884;28;19942;-72
2023/09/14 07:47:07;;;;;;;;;;;;;;;-144.99;81.03;52362.50;5021859;28;20029;-71
2023/09/14 07:49:34;;;;;;;;;;;;;;;-144.99;80.64;52321.72;5037659;28;19957;-73
2023/09/14 07:52:00;;;;;;;;;;;;;;;-144.99;80.37;52368.59;5044761;28;20020;-72
2023/09/14 07:54:27;;;;;;;;;;;;;;;-144.99;79.61;52338.03;5031077;28;19949;-73
2023/09/14 07:56:53;;;;;;;;;;;;;;;-144.99;78.13;52285.03;5039752;28;20188;-73
2023/09/14 07:59:19;;;;;;;;;;;;;;;-144.99;78.40;52313.56;5037506;28;19961;-72
2023/09/14 08:01:47;;;;;;;;;;;;;;;-144.99;78.13;52313.56;5034508;28;19982;-72
2023/09/14 08:04:14;;;;;;;;;;;;;;;-144.99;77.31;52374.72;5028430;28;19952;-73
2023/09/14 08:06:40;;;;;;;;;;;;;;;-144.99;76.32;52317.66;5027842;28;20359;-73
2023/09/14 08:09:07;;;;;;;;;;;;;;;-144.99;76.13;52329.88;5028777;28;19968;-72
2023/09/14 08:11:35;;;;;;;;;;;;;;;-144.99;75.62;52293.19;5024745;28;20009;-71
2023/09/14 08:14:02;;;;;;;;;;;;;;;-144.99;74.63;52289.13;5015096;28;19949;-72
2023/09/14 08:16:32;;;;;;;;;;;;;;;-144.99;73.96;52297.25;5025307;28;19951;-72
2023/09/14 08:19:00;;;;;;;;;;;;;;;-144.99;73.37;52297.25;5014590;28;20247;-72
2023/09/14 08:21:26;;;;;;;;;;;;;;;-144.99;72.83;52325.81;5029150;28;19996;-72
2023/09/14 08:23:53;;;;;;;;;;;;;;;-144.99;71.79;52309.50;5032887;28;19949;-73
2023/09/14 08:26:20;;;;;;;;;;;;;;;-144.99;72.01;52305.41;5019852;28;19945;-72
2023/09/14 08:28:46;;;;;;;;;;;;;;;-144.99;71.89;52278.91;5024507;28;19968;-72
2023/09/14 08:31:13;;;;;;;;;;;;;;;-144.99;71.32;52301.34;5025205;28;19990;-73
2023/09/14 08:33:39;;;;;;;;;;;;;;;-144.99;70.71;52311.53;5018925;28;19952;-72
2023/09/14 08:36:07;;;;;;;;;;;;;;;-144.99;70.11;52291.16;5019981;28;19949;-72
2023/09/14 08:38:34;;;;;;;;;;;;;;;-144.99;69.81;52280.97;5032822;28;19960;-73
2023/09/14 08:41:01;;;;;;;;;;;;;;;-144.99;70.36;52293.19;5029464;28;19948;-72
2023/09/14 08:43:28;;;;;;;;;;;;;;;-144.99;69.57;52276.88;5039615;28;19956;-73
2023/09/14 08:45:55;;;;;;;;;;;;;;;-144.99;69.47;52266.69;5043034;28;19942;-72
2023/09/14 08:48:23;;;;;;;;;;;;;;;-144.99;69.37;52268.72;5019696;28;19944;-72
2023/09/14 08:50:53;;;;;;;;;;;;;;;-144.99;68.59;52301.34;5034251;28;20087;-72
2023/09/14 08:53:21;;;;;;;;;;;;;;;-144.99;68.16;52313.56;5023556;28;19945;-72
2023/09/14 08:55:47;;;;;;;;;;;;;;;-144.99;67.71;52289.13;5031595;28;19954;-73
2023/09/14 08:58:14;;;;;;;;;;;;;;;-144.99;67.46;52260.56;5032158;28;19953;-73
2023/09/14 09:00:41;;;;;;;;;;;;;;;-144.99;67.82;52276.88;5021737;28;19945;-72
2023/09/14 09:03:08;;;;;;;;;;;;;;;-144.99;67.58;52293.19;5021148;28;20009;-72
2023/09/14 09:05:34;;;;;;;;;;;;;;;-144.99;66.63;52276.88;5023268;28;20039;-73
2023/09/14 09:08:01;;;;;;;;;;;;;;;-144.99;66.04;52285.03;5025818;28;19981;-74
2023/09/14 09:10:30;;;;;;;;;;;;;;;-144.99;65.62;52252.44;5023660;28;20438;-73
2023/09/14 09:12:57;;;;;;;;;;;;;;;-144.99;64.96;52260.56;5019163;28;19974;-72
2023/09/14 09:15:24;;;;;;;;;;;;;;;-144.99;64.68;52227.97;5024245;28;20364;-73
2023/09/14 09:17:53;;;;;;;;;;;;;;;-144.99;64.31;52256.50;5031238;28;20361;-72
2023/09/14 09:20:22;;;;;;;;;;;;;;;-144.99;63.44;52207.59;5029016;28;20452;-73
2023/09/14 09:22:50;;;;;;;;;;;;;;;-144.99;63.84;52223.88;5042963;28;19967;-73
2023/09/14 09:25:17;;;;;;;;;;;;;;;-144.99;62.50;52219.81;5024612;28;19983;-72
2023/09/14 09:27:45;;;;;;;;;;;;;;;-144.99;61.69;52248.34;5023834;28;20356;-73
2023/09/14 09:30:12;;;;;;;;;;;;;;;-144.99;61.54;52179.06;5026787;28;20426;-72
2023/09/14 09:32:39;;;;;;;;;;;;;;;-144.99;60.68;52207.59;5028019;28;20060;-73
2023/09/14 09:35:16;;;;;;;;;;;;;;;-144.99;60.03;52211.66;5029667;28;19957;-73
2023/09/14 09:37:43;;;;;;;;;;;;;;;-144.99;60.03;52234.09;5030419;28;19943;-73
2023/09/14 09:40:12;;;;;;;;;;;;;;;-144.99;59.91;52227.97;5027491;28;19964;-73
2023/09/14 09:42:39;;;;;;;;;;;;;;;-144.99;59.87;52227.97;5027254;28;20415;-73
2023/09/14 09:45:08;;;;;;;;;;;;;;;-144.99;59.82;52203.50;5026501;28;20091;-72
2023/09/14 09:47:36;;;;;;;;;;;;;;;-144.99;59.02;52154.59;5017285;28;19975;-72
2023/09/14 09:50:02;;;;;;;;;;;;;;;-144.99;58.63;52211.66;5027092;28;19973;-71
2023/09/14 09:52:32;;;;;;;;;;;;;;;-144.99;59.76;52181.09;5028495;28;20409;-72
2023/09/14 09:54:59;;;;;;;;;;;;;;;-144.99;59.63;52219.81;5029989;28;19958;-72
2023/09/14 09:57:28;;;;;;;;;;;;;;;-144.99;60.02;52207.59;5032075;28;20042;-71
2023/09/14 09:59:55;;;;;;;;;;;;;;;-144.99;60.53;52232.03;5043007;28;19955;-73
2023/09/14 10:02:31;;;;;;;;;;;;;;;-144.99;60.59;52223.88;5043306;28;20039;-72
2023/09/14 10:04:58;;;;;;;;;;;;;;;-144.99;60.03;52211.66;5023813;28;19948;-71
2023/09/14 10:07:24;;;;;;;;;;;;;;;-144.99;59.72;52219.81;5026040;28;19950;-72
2023/09/14 10:09:51;;;;;;;;;;;;;;;-144.99;59.62;52207.59;5031696;28;20451;-72
2023/09/14 10:12:18;;;;;;;;;;;;;;;-144.99;58.62;52199.44;5027999;28;19949;-73
2023/09/14 10:14:47;;;;;;;;;;;;;;;-144.99;58.87;52211.66;5020796;28;20321;-72
2023/09/14 10:17:19;;;;;;;;;;;;;;;-144.99;58.58;52158.66;5021481;28;20184;-73
2023/09/14 10:19:48;;;;;;;;;;;;;;;-144.99;58.45;52154.59;5024180;28;20397;-73
2023/09/14 10:22:15;;;;;;;;;;;;;;;-144.99;57.71;52130.13;5018413;28;19967;-73
2023/09/14 10:24:42;;;;;;;;;;;;;;;-144.99;56.46;52148.47;5025933;28;20044;-73
2023/09/14 10:27:09;;;;;;;;;;;;;;;-144.99;55.43;52130.13;5027924;28;19975;-72
2023/09/14 10:29:38;;;;;;;;;;;;;;;-144.99;55.28;52083.25;5024797;28;20056;-71
2023/09/14 10:32:06;;;;;;;;;;;;;;;-144.99;54.48;52052.69;5024927;28;20486;-72
2023/09/14 10:34:36;;;;;;;;;;;;;;;-144.99;53.39;52060.84;5025059;28;19947;-71
2023/09/14 10:37:04;;;;;;;;;;;;;;;-144.99;52.93;52077.16;5031184;28;19945;-71
2023/09/14 10:39:30;;;;;;;;;;;;;;;-144.99;52.94;52077.16;5035578;28;20012;-72
2023/09/14 10:41:57;;;;;;;;;;;;;;;-144.99;53.39;52140.31;5030171;28;19978;-72
2023/09/14 10:44:24;;;;;;;;;;;;;;;-144.99;53.78;52187.19;5032855;28;19943;-70
2023/09/14 10:46:55;;;;;;;;;;;;;;;-144.99;54.92;52195.34;5029561;28;20071;-72
2023/09/14 10:49:24;;;;;;;;;;;;;;;-144.99;55.33;52077.16;5023217;28;19961;-71
2023/09/14 10:51:50;;;;;;;;;;;;;;;-144.99;54.87;52052.69;5031282;28;19977;-72
2023/09/14 10:54:22;;;;;;;;;;;;;;;-144.99;54.81;52191.28;5030187;28;19947;-72
2023/09/14 10:56:48;;;;;;;;;;;;;;;-144.99;55.03;52172.94;5031188;28;19984;-71
2023/09/14 10:59:15;;;;;;;;;;;;;;;-144.99;55.26;52199.44;5023805;28;19970;-72
2023/09/14 11:01:48;;;;;;;;;;;;;;;-144.99;55.11;52069.00;5023108;28;20665;-71
2023/09/14 11:04:15;;;;;;;;;;;;;;;-144.99;55.21;52170.91;5026502;28;19967;-71
2023/09/14 11:06:42;;;;;;;;;;;;;;;-144.99;54.87;52113.84;5030091;28;20000;-72
2023/09/14 11:09:08;;;;;;;;;;;;;;;-144.99;54.15;52024.16;5028736;28;20363;-71
2023/09/14 11:11:40;;;;;;;;;;;;;;;-144.99;54.36;52179.06;5037108;28;19938;-71
2023/09/14 11:14:08;;;;;;;;;;;;;;;-144.99;54.12;52028.22;5026519;28;19979;-71
2023/09/14 11:16:41;;;;;;;;;;;;;;;-144.99;53.66;52077.16;5037440;28;20043;-71
2023/09/14 11:19:08;;;;;;;;;;;;;;;-144.99;53.33;52140.31;5023065;28;19960;-72
2023/09/14 11:21:44;;;;;;;;;;;;;;;-144.99;53.66;52166.81;5023816;28;19996;-73
2023/09/14 11:24:12;;;;;;;;;;;;;;;-144.99;54.47;52187.19;5020174;28;19965;-72
2023/09/14 11:26:45;;;;;;;;;;;;;;;-144.99;55.31;52081.22;5020595;28;20371;-71
2023/09/14 11:29:13;;;;;;;;;;;;;;;-144.99;54.61;52052.69;5021558;28;20003;-72
2023/09/14 11:31:40;;;;;;;;;;;;;;;-144.99;54.10;52044.53;5014983;28;20311;-71
2023/09/14 11:34:08;;;;;;;;;;;;;;;-144.99;53.94;52040.47;5024710;28;19990;-72
2023/09/14 11:36:35;;;;;;;;;;;;;;;-144.99;52.63;51963.03;5021413;28;19950;-71
2023/09/14 11:39:08;;;;;;;;;;;;;;;-144.99;52.37;51963.03;5023357;28;20093;-70
2023/09/14 11:41:38;;;;;;;;;;;;;;;-144.99;51.34;51942.63;5018767;28;20083;-71
2023/09/14 11:44:06;;;;;;;;;;;;;;;-144.99;50.34;51979.31;5022148;28;20060;-71
2023/09/14 11:46:34;;;;;;;;;;;;;;;-144.99;50.91;51950.78;5023289;28;20020;-72
2023/09/14 11:49:01;;;;;;;;;;;;;;;-144.99;50.32;51963.03;5023739;28;20003;-72
2023/09/14 11:51:28;;;;;;;;;;;;;;;-144.99;50.47;51918.19;5023119;28;19975;-71
2023/09/14 11:53:58;;;;;;;;;;;;;;;-144.99;50.54;51914.09;5027391;28;19941;-71
2023/09/14 11:56:25;;;;;;;;;;;;;;;-144.99;49.70;51910.03;5026673;28;19980;-72
2023/09/14 11:58:52;;;;;;;;;;;;;;;-144.99;49.53;51850.94;5029480;28;19980;-72
2023/09/14 12:01:20;;;;;;;;;;;;;;;-144.99;49.56;52081.22;5029566;28;20035;-73
2023/09/14 12:03:46;;;;;;;;;;;;;;;-144.99;50.12;52117.91;5022230;28;20051;-72
2023/09/14 12:06:14;;;;;;;;;;;;;;;-144.99;51.23;52146.44;5024159;28;19951;-73
2023/09/14 12:08:46;;;;;;;;;;;;;;;-144.99;52.21;52126.06;5011247;28;19972;-72
2023/09/14 12:11:13;;;;;;;;;;;;;;;-144.99;52.79;52056.78;5028814;28;20037;-72
2023/09/14 12:13:49;;;;;;;;;;;;;;;-144.99;52.28;52024.16;5019802;28;19982;-72
2023/09/14 12:16:19;;;;;;;;;;;;;;;-144.99;51.77;52066.97;5026533;28;19955;-71
2023/09/14 12:18:47;;;;;;;;;;;;;;;-144.99;50.96;51936.53;5029235;28;20017;-72
2023/09/14 12:21:14;;;;;;;;;;;;;;;-144.99;50.60;52101.59;5026351;28;19981;-73